Time;durP1;ratioP1;P1;durP2;ratioP2;P2;SDS_P1;SDS_P2;PMS_P1;PMS_P2;Temp;Humidity;BMP_temperature;BMP_pressure;BME280_temperature;BME280_humidity;BME280_pressure;Samples;Min_cycle;Max_cycle;Signal;HPM_P1;HPM_P2
2022/03/26 00:01:24;;;;;;;44.20;26.67;;;10.90;49.60;;;;;;5013978;28;20451;-49
2022/03/26 00:03:51;;;;;;;41.47;28.30;;;11.00;49.20;;;;;;5012710;28;20489;-49
2022/03/26 00:06:18;;;;;;;39.80;26.13;;;11.10;49.30;;;;;;5013402;28;20451;-48
2022/03/26 00:08:48;;;;;;;45.00;28.23;;;11.10;49.60;;;;;;5013453;28;20493;-50
2022/03/26 00:11:15;;;;;;;36.67;26.30;;;11.10;49.80;;;;;;5013570;28;20448;-49
2022/03/26 00:13:42;;;;;;;43.47;28.80;;;11.00;49.80;;;;;;5013858;28;20443;-50
2022/03/26 00:16:10;;;;;;;42.13;27.27;;;10.90;49.70;;;;;;5013580;28;20980;-50
2022/03/26 00:18:39;;;;;;;40.30;25.57;;;10.80;50.00;;;;;;5013737;28;20545;-50
2022/03/26 00:21:06;;;;;;;41.43;26.80;;;10.70;50.30;;;;;;5013626;28;20447;-49
2022/03/26 00:23:34;;;;;;;40.83;25.10;;;10.60;50.40;;;;;;5013627;28;20837;-49
2022/03/26 00:26:01;;;;;;;46.77;26.23;;;10.60;50.40;;;;;;5013874;28;20501;-48
2022/03/26 00:28:29;;;;;;;40.43;24.53;;;10.70;50.10;;;;;;5013176;28;20470;-49
2022/03/26 00:30:56;;;;;;;36.30;26.67;;;10.70;50.40;;;;;;5013505;28;20840;-48
2022/03/26 00:33:24;;;;;;;39.30;26.03;;;10.60;51.10;;;;;;5013569;28;20455;-48
2022/03/26 00:35:52;;;;;;;38.50;24.90;;;10.50;51.20;;;;;;5013161;28;20509;-48
2022/03/26 00:38:19;;;;;;;40.77;26.50;;;10.50;50.90;;;;;;5013598;28;20475;-48
2022/03/26 00:40:47;;;;;;;42.27;26.43;;;10.40;51.90;;;;;;5013215;28;20447;-48
2022/03/26 00:43:14;;;;;;;43.50;26.07;;;10.30;52.20;;;;;;5013273;28;20470;-48
2022/03/26 00:45:41;;;;;;;38.67;26.53;;;10.30;52.70;;;;;;5013287;28;20451;-48
2022/03/26 00:48:09;;;;;;;39.70;26.70;;;10.20;52.50;;;;;;5013356;28;20506;-48
2022/03/26 00:50:36;;;;;;;36.23;24.37;;;10.20;52.40;;;;;;5013401;28;20451;-49
2022/03/26 00:53:05;;;;;;;44.57;26.23;;;10.20;52.50;;;;;;5013283;28;20458;-48
2022/03/26 00:55:32;;;;;;;34.60;23.87;;;10.10;52.90;;;;;;5013411;28;20443;-48
2022/03/26 00:57:59;;;;;;;36.73;25.40;;;10.20;52.70;;;;;;5012998;28;20470;-48
2022/03/26 01:00:27;;;;;;;35.93;23.37;;;10.10;53.20;;;;;;5013425;28;20474;-48
2022/03/26 01:02:54;;;;;;;38.10;24.53;;;10.10;53.00;;;;;;5012990;28;20455;-48
2022/03/26 01:05:21;;;;;;;40.37;24.33;;;10.10;53.20;;;;;;5012985;28;20482;-48
2022/03/26 01:07:48;;;;;;;41.13;26.33;;;10.00;53.20;;;;;;5012768;28;20991;-49
2022/03/26 01:10:17;;;;;;;33.53;23.00;;;10.00;53.60;;;;;;5013032;28;20542;-48
2022/03/26 01:12:44;;;;;;;33.77;22.53;;;9.90;54.20;;;;;;5013250;28;20453;-49
2022/03/26 01:15:11;;;;;;;39.90;24.23;;;9.90;53.90;;;;;;5015865;28;20450;-48
2022/03/26 01:17:38;;;;;;;35.13;22.70;;;9.80;54.20;;;;;;5016608;28;20965;-48
2022/03/26 01:20:06;;;;;;;34.27;23.00;;;9.80;54.00;;;;;;5016982;28;20458;-48
2022/03/26 01:22:34;;;;;;;36.30;23.60;;;9.70;54.20;;;;;;5016479;28;20458;-48
2022/03/26 01:25:01;;;;;;;36.50;24.87;;;9.70;54.30;;;;;;5016213;28;20486;-48
2022/03/26 01:27:29;;;;;;;40.30;24.57;;;9.70;54.60;;;;;;5016429;28;20475;-49
2022/03/26 01:29:57;;;;;;;43.03;24.50;;;9.70;54.70;;;;;;5016543;28;20804;-49
2022/03/26 01:32:24;;;;;;;37.03;27.13;;;9.70;54.80;;;;;;5016411;28;20475;-47
2022/03/26 01:34:51;;;;;;;35.67;23.37;;;9.70;54.60;;;;;;5016548;28;20451;-47
2022/03/26 01:37:19;;;;;;;33.87;23.60;;;9.60;54.30;;;;;;5016427;28;20489;-47
2022/03/26 01:39:46;;;;;;;37.00;23.97;;;9.50;54.10;;;;;;5016234;28;20453;-47
2022/03/26 01:42:13;;;;;;;42.20;25.03;;;9.50;54.70;;;;;;5016431;28;20451;-47
2022/03/26 01:44:41;;;;;;;37.10;24.30;;;9.60;54.60;;;;;;5015921;28;20489;-47
2022/03/26 01:47:09;;;;;;;36.63;23.43;;;9.50;55.20;;;;;;5016148;28;20566;-47
2022/03/26 01:49:36;;;;;;;42.10;25.80;;;9.50;55.20;;;;;;5015956;28;20448;-47
2022/03/26 01:52:07;;;;;;;33.17;24.10;;;9.30;55.30;;;;;;5015808;28;20542;-47
2022/03/26 01:54:34;;;;;;;37.90;22.90;;;9.30;55.60;;;;;;5016086;28;20953;-47
2022/03/26 01:57:02;;;;;;;40.97;25.87;;;9.20;55.70;;;;;;5015986;28;20477;-48
2022/03/26 01:59:29;;;;;;;36.47;23.60;;;9.20;55.90;;;;;;5016235;28;20451;-47
2022/03/26 02:01:57;;;;;;;39.07;24.37;;;9.20;55.70;;;;;;5015593;28;20541;-47
2022/03/26 02:04:26;;;;;;;35.63;22.80;;;9.20;55.70;;;;;;5015847;28;20483;-47
2022/03/26 02:06:54;;;;;;;37.70;22.80;;;9.10;56.10;;;;;;5015940;28;20479;-48
2022/03/26 02:09:21;;;;;;;37.27;24.90;;;9.10;56.00;;;;;;5015718;28;20494;-47
2022/03/26 02:11:49;;;;;;;40.20;23.27;;;9.00;56.00;;;;;;5015670;28;20486;-48
2022/03/26 02:14:16;;;;;;;36.87;23.70;;;9.00;56.10;;;;;;5015561;28;20474;-47
2022/03/26 02:16:44;;;;;;;32.53;23.37;;;8.90;56.00;;;;;;5015375;28;20526;-47
2022/03/26 02:19:13;;;;;;;36.80;22.37;;;8.80;56.10;;;;;;5015756;28;20505;-47
2022/03/26 02:21:42;;;;;;;33.70;23.07;;;8.90;56.20;;;;;;5015420;28;20505;-47
2022/03/26 02:24:09;;;;;;;30.17;21.37;;;8.90;56.90;;;;;;5015768;28;20509;-47
2022/03/26 02:26:37;;;;;;;38.27;26.00;;;8.80;57.00;;;;;;5014465;28;20927;-47
2022/03/26 02:29:09;;;;;;;34.77;22.77;;;8.80;57.30;;;;;;5015577;28;20538;-47
2022/03/26 02:31:36;;;;;;;37.73;21.73;;;8.80;57.60;;;;;;5015263;28;20457;-47
2022/03/26 02:34:04;;;;;;;38.27;23.83;;;8.80;57.40;;;;;;5015063;28;20451;-47
2022/03/26 02:36:31;;;;;;;35.47;21.47;;;8.80;57.50;;;;;;5014952;28;20470;-47
2022/03/26 02:39:00;;;;;;;32.33;23.90;;;8.70;57.40;;;;;;5015421;28;20438;-47
2022/03/26 02:41:27;;;;;;;31.73;24.33;;;8.70;57.60;;;;;;5015339;28;20446;-47
2022/03/26 02:43:54;;;;;;;32.47;22.87;;;8.70;57.60;;;;;;5014802;28;20813;-47
2022/03/26 02:46:21;;;;;;;34.80;22.13;;;8.60;57.60;;;;;;5015142;28;20457;-47
2022/03/26 02:48:49;;;;;;;29.50;22.43;;;8.50;57.90;;;;;;5014919;28;20473;-47
2022/03/26 02:51:16;;;;;;;31.70;22.73;;;8.50;57.70;;;;;;5014960;28;20455;-47
2022/03/26 02:53:44;;;;;;;28.60;20.43;;;8.50;58.20;;;;;;5015012;28;20447;-47
2022/03/26 02:56:12;;;;;;;35.70;22.23;;;8.50;58.30;;;;;;5014652;28;20447;-47
2022/03/26 02:58:39;;;;;;;31.10;22.20;;;8.40;58.30;;;;;;5014540;28;20470;-47
2022/03/26 03:01:07;;;;;;;32.70;21.87;;;8.40;58.20;;;;;;5014942;28;20459;-47
2022/03/26 03:03:34;;;;;;;31.73;21.83;;;8.40;58.70;;;;;;5014617;28;20447;-47
2022/03/26 03:06:01;;;;;;;31.60;20.93;;;;;;;;;;5014400;28;20995;-47
2022/03/26 03:08:28;;;;;;;30.60;20.47;;;8.30;57.70;;;;;;5014381;28;20494;-48
2022/03/26 03:10:55;;;;;;;38.63;22.60;;;8.20;58.20;;;;;;5014446;28;20923;-47
2022/03/26 03:13:24;;;;;;;41.77;23.73;;;8.40;58.30;;;;;;5014281;28;20455;-47
2022/03/26 03:15:52;;;;;;;28.20;22.43;;;8.40;58.60;;;;;;5014614;28;20465;-47
2022/03/26 03:18:19;;;;;;;32.17;21.00;;;8.50;58.80;;;;;;5014673;28;20471;-47
2022/03/26 03:20:47;;;;;;;36.70;23.07;;;8.50;58.70;;;;;;5014482;28;20447;-47
2022/03/26 03:23:14;;;;;;;31.87;22.33;;;8.40;58.20;;;;;;5014458;28;20497;-47
2022/03/26 03:25:41;;;;;;;35.07;22.87;;;8.30;58.90;;;;;;5014519;28;20483;-47
2022/03/26 03:28:08;;;;;;;31.97;20.73;;;8.20;58.80;;;;;;5014008;28;20978;-47
2022/03/26 03:30:37;;;;;;;33.03;22.70;;;8.20;59.10;;;;;;5014054;28;20948;-47
2022/03/26 03:33:04;;;;;;;29.97;20.30;;;8.10;59.10;;;;;;5014485;28;20816;-47
2022/03/26 03:35:31;;;;;;;35.77;22.90;;;8.00;59.40;;;;;;5014308;28;20451;-47
2022/03/26 03:37:59;;;;;;;36.00;23.17;;;8.10;59.30;;;;;;5014255;28;20483;-47
2022/03/26 03:40:26;;;;;;;31.57;21.10;;;8.00;59.60;;;;;;5014261;28;20521;-47
2022/03/26 03:42:54;;;;;;;27.07;20.47;;;8.00;59.50;;;;;;5014093;28;20455;-47
2022/03/26 03:45:22;;;;;;;35.70;23.50;;;8.10;59.90;;;;;;5013708;28;21109;-47
2022/03/26 03:47:51;;;;;;;36.33;21.60;;;8.10;59.70;;;;;;5013821;28;20989;-47
2022/03/26 03:50:18;;;;;;;30.87;22.37;;;8.10;59.50;;;;;;5013755;28;20450;-47
2022/03/26 03:52:45;;;;;;;31.47;20.17;;;8.20;59.70;;;;;;5013980;28;20462;-47
2022/03/26 03:55:13;;;;;;;31.10;22.07;;;8.10;59.70;;;;;;5014065;28;20470;-47
2022/03/26 03:57:45;;;;;;;36.67;22.47;;;8.00;60.10;;;;;;5013913;28;20463;-47
2022/03/26 04:00:15;;;;;;;36.30;21.37;;;7.90;60.20;;;;;;5013835;28;20451;-47
2022/03/26 04:02:43;;;;;;;31.20;22.00;;;8.00;60.90;;;;;;5013554;28;20453;-47
2022/03/26 04:05:13;;;;;;;32.70;20.20;;;8.00;60.30;;;;;;5013560;28;20536;-47
2022/03/26 04:07:40;;;;;;;32.80;20.27;;;7.90;60.30;;;;;;5013440;28;20525;-47
2022/03/26 04:10:09;;;;;;;35.13;20.70;;;7.90;60.50;;;;;;5013403;28;20450;-47
2022/03/26 04:12:38;;;;;;;34.50;20.53;;;7.80;60.60;;;;;;5013836;28;20457;-47
2022/03/26 04:15:06;;;;;;;41.50;21.40;;;7.80;60.60;;;;;;5013455;28;20454;-47
2022/03/26 04:17:33;;;;;;;34.13;20.93;;;7.90;61.20;;;;;;5013377;28;20555;-47
2022/03/26 04:20:01;;;;;;;31.00;21.30;;;7.80;61.60;;;;;;5013373;28;20815;-47
2022/03/26 04:22:30;;;;;;;34.87;20.90;;;7.80;61.70;;;;;;5013459;28;20451;-47
2022/03/26 04:24:57;;;;;;;40.47;22.63;;;7.80;62.00;;;;;;5013409;28;20921;-47
2022/03/26 04:27:24;;;;;;;40.20;23.30;;;7.90;62.20;;;;;;5013461;28;20553;-47
2022/03/26 04:29:51;;;;;;;38.97;20.80;;;7.80;62.20;;;;;;5013353;28;20542;-47
2022/03/26 04:32:18;;;;;;;36.70;21.23;;;7.70;62.80;;;;;;5013533;28;20873;-47
2022/03/26 04:34:45;;;;;;;32.10;21.83;;;7.80;62.80;;;;;;5013263;28;20447;-47
2022/03/26 04:37:12;;;;;;;32.30;21.87;;;7.80;62.20;;;;;;5013427;28;21002;-47
2022/03/26 04:39:41;;;;;;;30.80;20.93;;;7.80;62.20;;;;;;5013418;28;20446;-47
2022/03/26 04:42:09;;;;;;;34.47;20.63;;;7.70;62.90;;;;;;5013381;28;20450;-47
2022/03/26 04:44:36;;;;;;;35.17;20.73;;;7.70;63.40;;;;;;5013456;28;20502;-47
2022/03/26 04:47:04;;;;;;;32.80;21.03;;;7.50;63.10;;;;;;5013048;28;20847;-47
2022/03/26 04:49:31;;;;;;;39.17;23.63;;;7.50;62.70;;;;;;5015223;28;20450;-47
2022/03/26 04:51:59;;;;;;;32.90;21.70;;;7.40;63.50;;;;;;5017341;28;20478;-47
2022/03/26 04:54:26;;;;;;;35.77;22.23;;;7.50;63.20;;;;;;5016903;28;20959;-47
2022/03/26 04:56:55;;;;;;;34.73;21.43;;;7.50;64.60;;;;;;5017005;28;20462;-47
2022/03/26 04:59:22;;;;;;;32.13;21.50;;;7.50;64.30;;;;;;5017261;28;20482;-47
2022/03/26 05:01:49;;;;;;;28.97;22.23;;;7.50;64.30;;;;;;5016765;28;20453;-47
2022/03/26 05:04:16;;;;;;;32.30;22.33;;;7.40;65.00;;;;;;5016744;28;20450;-47
2022/03/26 05:06:44;;;;;;;36.40;23.13;;;7.40;65.20;;;;;;5016687;28;20491;-47
2022/03/26 05:09:11;;;;;;;42.27;23.23;;;7.30;64.80;;;;;;5016638;28;20973;-47
2022/03/26 05:11:38;;;;;;;30.77;21.70;;;7.30;66.00;;;;;;5016563;28;20938;-47
2022/03/26 05:14:07;;;;;;;33.17;21.83;;;7.30;66.20;;;;;;5016950;28;20817;-47
2022/03/26 05:16:34;;;;;;;30.93;20.97;;;7.30;66.70;;;;;;5016892;28;20455;-47
2022/03/26 05:19:01;;;;;;;30.00;21.67;;;7.40;66.90;;;;;;5016469;28;20447;-47
2022/03/26 05:21:28;;;;;;;33.87;20.73;;;7.40;67.30;;;;;;5016731;28;20451;-47
2022/03/26 05:23:56;;;;;;;32.20;21.93;;;7.40;66.80;;;;;;5016531;28;20541;-47
2022/03/26 05:26:23;;;;;;;31.80;19.10;;;7.50;66.40;;;;;;5016292;28;20478;-47
2022/03/26 05:28:50;;;;;;;41.17;21.50;;;7.40;66.40;;;;;;5016276;28;20471;-47
2022/03/26 05:31:19;;;;;;;33.70;22.03;;;7.40;67.00;;;;;;5016420;28;20446;-47
2022/03/26 05:33:46;;;;;;;32.63;21.03;;;7.30;67.60;;;;;;5016509;28;20457;-47
2022/03/26 05:36:13;;;;;;;38.03;21.33;;;7.20;67.90;;;;;;5016247;28;20447;-47
2022/03/26 05:38:40;;;;;;;31.30;23.07;;;7.20;68.60;;;;;;5016597;28;20480;-47
2022/03/26 05:41:10;;;;;;;32.83;22.07;;;7.30;68.60;;;;;;5016369;28;20812;-47
2022/03/26 05:43:37;;;;;;;31.13;21.77;;;7.30;68.00;;;;;;5016344;28;20446;-47
2022/03/26 05:46:04;;;;;;;29.97;20.67;;;7.30;68.50;;;;;;5016288;28;20479;-47
2022/03/26 05:48:33;;;;;;;38.00;22.87;;;7.30;69.30;;;;;;5016208;28;20474;-47
2022/03/26 05:51:00;;;;;;;34.50;21.07;;;7.40;69.50;;;;;;5016198;28;20451;-48
2022/03/26 05:53:27;;;;;;;31.90;22.43;;;7.40;69.40;;;;;;5016246;28;20443;-47
2022/03/26 05:55:54;;;;;;;34.13;22.17;;;7.30;69.70;;;;;;5016056;28;20450;-47
2022/03/26 05:58:21;;;;;;;33.20;23.00;;;7.30;70.00;;;;;;5015712;28;20475;-47
2022/03/26 06:00:50;;;;;;;39.40;22.60;;;7.30;69.50;;;;;;5014734;28;20930;-47
2022/03/26 06:03:18;;;;;;;38.83;24.63;;;7.30;68.60;;;;;;5016080;28;20451;-47
2022/03/26 06:05:47;;;;;;;34.93;22.70;;;7.40;70.60;;;;;;5015841;28;20482;-47
2022/03/26 06:08:15;;;;;;;35.00;24.60;;;7.50;70.80;;;;;;5015184;28;20486;-47
2022/03/26 06:10:42;;;;;;;35.73;22.43;;;7.50;71.00;;;;;;5015852;28;20502;-47
2022/03/26 06:13:09;;;;;;;35.23;24.93;;;7.60;71.00;;;;;;5015741;28;20474;-47
2022/03/26 06:15:37;;;;;;;34.60;23.30;;;7.50;72.00;;;;;;5015425;28;21009;-47
2022/03/26 06:18:04;;;;;;;33.43;23.47;;;7.60;73.10;;;;;;5015713;28;20478;-47
2022/03/26 06:20:32;;;;;;;33.83;21.90;;;7.70;71.80;;;;;;5015326;28;20924;-48
2022/03/26 06:23:00;;;;;;;39.17;24.70;;;7.80;71.10;;;;;;5015278;28;20447;-47
2022/03/26 06:25:28;;;;;;;33.60;23.07;;;7.80;71.90;;;;;;5015486;28;20490;-47
2022/03/26 06:27:55;;;;;;;29.60;20.37;;;7.90;72.00;;;;;;5015190;28;20507;-47
2022/03/26 06:30:22;;;;;;;32.07;22.97;;;7.90;72.40;;;;;;5015449;28;20456;-47
2022/03/26 06:32:49;;;;;;;45.33;23.70;;;8.00;71.70;;;;;;5015298;28;20435;-47
2022/03/26 06:35:16;;;;;;;35.80;23.47;;;8.00;71.40;;;;;;5015136;28;20440;-47
2022/03/26 06:37:43;;;;;;;37.73;22.87;;;8.00;69.70;;;;;;5015314;28;20479;-47
2022/03/26 06:40:12;;;;;;;30.60;23.03;;;8.20;70.40;;;;;;5015006;28;20517;-47
2022/03/26 06:42:39;;;;;;;32.97;21.97;;;8.30;71.00;;;;;;5015198;28;20447;-47
2022/03/26 06:45:07;;;;;;;36.70;23.60;;;8.40;70.40;;;;;;5015075;28;20451;-47
2022/03/26 06:47:34;;;;;;;29.53;22.23;;;8.40;69.50;;;;;;5015138;28;20586;-47
2022/03/26 06:50:02;;;;;;;36.27;25.50;;;8.50;69.70;;;;;;5014760;28;20905;-47
2022/03/26 06:52:29;;;;;;;38.93;23.70;;;8.50;69.10;;;;;;5014687;28;20483;-47
2022/03/26 06:54:56;;;;;;;37.20;24.00;;;8.60;68.30;;;;;;5014628;28;21041;-47
2022/03/26 06:57:25;;;;;;;30.33;22.60;;;8.50;66.00;;;;;;5015023;28;20848;-47
2022/03/26 06:59:52;;;;;;;39.73;23.90;;;8.70;65.50;;;;;;5014614;28;20993;-47
2022/03/26 07:02:19;;;;;;;36.80;25.67;;;8.70;64.70;;;;;;5014873;28;20546;-47
2022/03/26 07:04:46;;;;;;;35.63;23.80;;;8.80;63.80;;;;;;5014632;28;20954;-47
2022/03/26 07:07:14;;;;;;;36.93;23.60;;;8.90;64.90;;;;;;5014378;28;20498;-48
2022/03/26 07:09:41;;;;;;;36.53;22.47;;;8.90;62.20;;;;;;5014569;28;20509;-48
2022/03/26 07:12:09;;;;;;;38.70;22.90;;;9.00;62.20;;;;;;5014231;28;20453;-47
2022/03/26 07:14:38;;;;;;;35.23;24.07;;;9.00;63.10;;;;;;5014581;28;20451;-47
2022/03/26 07:17:06;;;;;;;38.17;21.73;;;9.20;61.10;;;;;;5014453;28;20470;-47
2022/03/26 07:19:33;;;;;;;36.17;22.90;;;9.10;62.80;;;;;;5014354;28;20446;-47
2022/03/26 07:22:00;;;;;;;35.07;22.10;;;9.10;60.80;;;;;;5014410;28;20447;-47
2022/03/26 07:24:27;;;;;;;38.53;23.20;;;9.20;61.50;;;;;;5014425;28;20519;-47
2022/03/26 07:26:54;;;;;;;37.87;24.03;;;9.20;61.20;;;;;;5014135;28;20490;-47
2022/03/26 07:29:21;;;;;;;31.63;24.00;;;9.30;61.20;;;;;;5014005;28;20457;-47
2022/03/26 07:31:50;;;;;;;37.80;23.80;;;9.40;60.80;;;;;;5014260;28;20458;-48
2022/03/26 07:34:17;;;;;;;33.87;22.03;;;9.50;60.50;;;;;;5014413;28;20454;-47
2022/03/26 07:36:45;;;;;;;43.53;23.47;;;9.60;60.30;;;;;;5013935;28;20447;-47
2022/03/26 07:39:13;;;;;;;37.80;23.27;;;9.60;60.80;;;;;;5013852;28;20443;-47
2022/03/26 07:41:40;;;;;;;33.13;23.57;;;9.70;60.20;;;;;;5014256;28;20462;-47
2022/03/26 07:44:07;;;;;;;36.40;22.00;;;9.80;60.40;;;;;;5013836;28;20458;-47
2022/03/26 07:46:34;;;;;;;33.50;22.50;;;9.80;60.80;;;;;;5013544;28;21012;-47
2022/03/26 07:49:05;;;;;;;40.30;24.70;;;9.80;60.80;;;;;;5013885;28;20454;-47
2022/03/26 07:51:34;;;;;;;32.60;22.93;;;9.80;60.90;;;;;;5013822;28;20431;-47
2022/03/26 07:54:02;;;;;;;35.87;24.00;;;9.90;60.90;;;;;;5013433;28;20447;-47
2022/03/26 07:56:29;;;;;;;38.97;23.60;;;9.80;59.60;;;;;;5013601;28;20493;-47
2022/03/26 07:58:58;;;;;;;35.80;22.40;;;9.80;59.90;;;;;;5013852;28;20475;-47
2022/03/26 08:01:25;;;;;;;37.20;23.20;;;10.00;58.70;;;;;;5013776;28;20457;-47
2022/03/26 08:03:54;;;;;;;32.13;22.40;;;10.10;58.90;;;;;;5013821;28;20826;-47
2022/03/26 08:06:23;;;;;;;33.47;23.20;;;10.20;58.40;;;;;;5013688;28;20515;-47
2022/03/26 08:08:50;;;;;;;34.07;22.60;;;10.30;58.20;;;;;;5013023;28;20566;-48
2022/03/26 08:11:18;;;;;;;38.80;24.10;;;10.30;57.80;;;;;;4993796;28;20452;-48
2022/03/26 08:13:45;;;;;;;32.17;22.07;;;10.30;58.60;;;;;;4994085;28;20492;-48
2022/03/26 08:16:12;;;;;;;37.20;21.67;;;10.50;59.40;;;;;;4993809;28;20815;-48
2022/03/26 08:18:39;;;;;;;36.83;23.97;;;10.60;57.60;;;;;;5002267;28;20489;-48
2022/03/26 08:21:07;;;;;;;36.77;23.27;;;10.60;57.70;;;;;;5013248;28;20451;-48
2022/03/26 08:23:35;;;;;;;37.83;23.77;;;10.70;58.00;;;;;;5012616;28;20542;-48
2022/03/26 08:26:22;;;;;;;35.73;22.40;;;10.80;58.40;;;;;;5012967;28;20482;-53
2022/03/26 08:28:50;;;;;;;38.20;22.90;;;11.00;57.70;;;;;;5010993;28;20868;-48
2022/03/26 08:31:20;;;;;;;33.30;25.30;;;11.10;58.10;;;;;;5013014;28;20524;-49
2022/03/26 08:33:48;;;;;;;32.53;24.50;;;11.30;56.80;;;;;;5018927;28;20458;-50
2022/03/26 08:36:16;;;;;;;38.73;24.10;;;11.40;58.00;;;;;;5015707;28;20447;-50
2022/03/26 08:38:49;;;;;;;39.57;23.80;;;11.40;57.00;;;;;;5014585;28;20534;-50
2022/03/26 08:41:17;;;;;;;35.40;23.88;;;11.60;56.50;;;;;;5011629;28;20533;-49
2022/03/26 08:43:45;;;;;;;35.80;24.30;;;11.80;57.50;;;;;;5012339;28;20200;-49
2022/03/26 08:46:12;;;;;;;36.07;23.97;;;11.80;56.20;;;;;;5011439;28;20537;-49
2022/03/26 08:48:40;;;;;;;33.20;23.73;;;11.70;56.10;;;;;;5007870;28;20510;-48
2022/03/26 08:51:08;;;;;;;37.57;23.10;;;11.40;55.60;;;;;;5003782;28;20550;-51
2022/03/26 08:53:35;;;;;;;41.27;23.07;;;11.60;56.70;;;;;;5002457;28;20452;-49
2022/03/26 08:56:04;;;;;;;31.60;22.00;;;11.70;56.10;;;;;;5000857;28;20444;-47
2022/03/26 08:58:32;;;;;;;35.07;23.53;;;11.80;56.40;;;;;;5002801;28;20475;-50
2022/03/26 09:00:59;;;;;;;43.60;25.83;;;11.90;55.70;;;;;;5005669;28;20856;-51
2022/03/26 09:03:27;;;;;;;36.57;24.73;;;11.90;56.70;;;;;;4989593;28;20919;-49
2022/03/26 09:05:54;;;;;;;35.27;23.27;;;12.00;56.00;;;;;;5002467;28;20967;-55
2022/03/26 09:08:21;;;;;;;40.10;23.10;;;12.00;55.30;;;;;;5006533;28;20517;-51
2022/03/26 09:10:49;;;;;;;37.40;23.43;;;12.20;55.60;;;;;;5005696;28;20933;-50
2022/03/26 09:13:18;;;;;;;36.73;24.23;;;12.30;55.00;;;;;;5007774;28;20502;-51
2022/03/26 09:15:45;;;;;;;35.60;23.37;;;12.40;55.40;;;;;;5008710;28;20446;-51
2022/03/26 09:18:12;;;;;;;41.43;24.77;;;12.60;55.30;;;;;;5017566;28;20482;-55
2022/03/26 09:20:39;;;;;;;37.40;23.83;;;13.30;54.40;;;;;;5016129;28;20458;-55
2022/03/26 09:23:07;;;;;;;35.77;24.70;;;14.20;54.10;;;;;;5018390;28;20529;-55
2022/03/26 09:25:35;;;;;;;34.80;26.10;;;14.90;51.80;;;;;;5016833;28;20504;-55
2022/03/26 09:28:03;;;;;;;35.83;25.07;;;15.20;50.80;;;;;;5016085;28;20910;-56
2022/03/26 09:30:32;;;;;;;39.73;26.33;;;15.40;50.60;;;;;;5014764;28;20451;-56
2022/03/26 09:33:00;;;;;;;42.87;25.33;;;15.90;50.50;;;;;;5015385;28;20449;-57
2022/03/26 09:35:28;;;;;;;42.93;25.80;;;16.30;50.40;;;;;;5014988;28;21412;-61
2022/03/26 09:37:55;;;;;;;35.43;24.90;;;16.90;49.00;;;;;;5006198;28;20969;-55
2022/03/26 09:40:24;;;;;;;39.13;26.10;;;17.30;49.00;;;;;;4986799;28;21370;-57
2022/03/26 09:42:52;;;;;;;39.60;26.07;;;17.70;48.30;;;;;;4987433;28;21040;-57
2022/03/26 09:45:20;;;;;;;37.03;26.30;;;17.40;47.70;;;;;;4987440;28;20553;-55
2022/03/26 09:47:48;;;;;;;42.03;27.40;;;17.70;48.00;;;;;;4988924;28;20501;-54
2022/03/26 09:50:17;;;;;;;48.03;27.57;;;18.40;47.00;;;;;;4986038;28;20465;-56
2022/03/26 09:52:44;;;;;;;42.30;27.93;;;18.30;47.00;;;;;;4988548;28;21238;-51
2022/03/26 09:55:12;;;;;;;38.00;24.80;;;18.30;47.50;;;;;;4993081;28;20451;-55
2022/03/26 09:57:40;;;;;;;38.23;26.50;;;19.10;47.00;;;;;;4989983;28;20498;-56
2022/03/26 10:00:09;;;;;;;43.33;26.73;;;19.90;47.20;;;;;;4989714;28;20457;-55
2022/03/26 10:02:37;;;;;;;36.20;26.30;;;19.60;45.60;;;;;;4990921;28;20455;-56
2022/03/26 10:05:11;;;;;;;36.37;26.07;;;20.20;45.70;;;;;;4991284;28;21116;-57
2022/03/26 10:07:38;;;;;;;37.47;26.13;;;20.40;45.30;;;;;;4987606;28;21227;-56
2022/03/26 10:10:06;;;;;;;34.50;26.23;;;19.80;45.70;;;;;;4983299;28;20459;-58
2022/03/26 10:12:33;;;;;;;35.77;26.57;;;20.70;46.70;;;;;;4981781;28;20462;-55
2022/03/26 10:15:01;;;;;;;37.50;27.97;;;21.30;45.60;;;;;;4983388;28;20454;-56
2022/03/26 10:17:31;;;;;;;41.00;27.60;;;21.30;44.70;;;;;;4986973;28;20566;-60
2022/03/26 10:20:02;;;;;;;34.03;25.70;;;21.40;44.20;;;;;;4992888;28;20451;-56
2022/03/26 10:22:33;;;;;;;37.60;26.57;;;22.20;43.00;;;;;;4994389;28;20446;-56
2022/03/26 10:25:03;;;;;;;41.70;28.00;;;21.90;43.60;;;;;;4991975;28;20547;-56
2022/03/26 10:27:35;;;;;;;36.53;26.30;;;22.10;43.80;;;;;;4993176;28;20489;-52
2022/03/26 10:30:04;;;;;;;36.93;26.00;;;22.00;44.30;;;;;;4992021;28;20447;-53
2022/03/26 10:32:45;;;;;;;38.53;27.07;;;22.30;43.60;;;;;;4989124;28;21052;-51
2022/03/26 10:35:24;;;;;;;40.73;28.10;;;22.50;43.70;;;;;;4994078;28;20473;-50
2022/03/26 10:37:58;;;;;;;43.60;28.43;;;21.90;42.00;;;;;;4993947;28;20482;-50
2022/03/26 10:40:31;;;;;;;36.20;27.87;;;21.50;43.10;;;;;;4991691;28;20546;-52
2022/03/26 10:43:08;;;;;;;45.93;27.27;;;21.50;43.60;;;;;;4990117;28;21255;-49
2022/03/26 10:45:37;;;;;;;38.40;27.37;;;21.80;42.70;;;;;;4991278;28;20549;-55
2022/03/26 10:48:10;;;;;;;38.80;27.23;;;22.00;42.90;;;;;;4981663;28;20487;-53
2022/03/26 10:50:38;;;;;;;40.07;25.03;;;22.50;42.60;;;;;;4980625;28;20513;-55
2022/03/26 10:53:13;;;;;;;34.50;26.20;;;22.70;42.90;;;;;;4980730;28;20462;-52
2022/03/26 10:55:43;;;;;;;34.27;26.43;;;22.70;41.60;;;;;;4980923;28;20473;-54
2022/03/26 10:58:11;;;;;;;36.70;25.23;;;22.10;42.50;;;;;;4988256;28;20946;-53
2022/03/26 11:00:38;;;;;;;34.93;25.77;;;22.40;42.50;;;;;;4989760;28;20465;-52
2022/03/26 11:03:10;;;;;;;38.90;27.70;;;23.20;43.10;;;;;;4987017;28;20614;-53
2022/03/26 11:05:39;;;;;;;35.90;25.60;;;23.00;40.20;;;;;;4985578;28;20474;-51
2022/03/26 11:08:13;;;;;;;34.50;26.57;;;23.20;42.30;;;;;;4977261;28;20988;-52
2022/03/26 11:10:42;;;;;;;36.53;26.83;;;23.80;41.60;;;;;;4973686;28;21058;-55
2022/03/26 11:13:12;;;;;;;35.57;26.63;;;24.20;40.80;;;;;;4970878;28;20458;-53
2022/03/26 11:15:43;;;;;;;42.47;26.93;;;24.00;40.10;;;;;;4977645;28;20447;-56
2022/03/26 11:18:43;;;;;;;34.90;25.93;;;24.20;41.10;;;;;;4980819;28;20477;-50
2022/03/26 11:22:04;;;;;;;32.90;25.87;;;24.50;41.10;;;;;;4983608;28;20466;-52
2022/03/26 11:25:00;;;;;;;30.90;24.73;;;24.10;40.00;;;;;;4958997;28;21389;-53
2022/03/26 11:27:41;;;;;;;36.23;25.50;;;24.10;40.10;;;;;;4985572;28;20486;-56
2022/03/26 11:30:16;;;;;;;31.17;24.87;;;24.40;39.60;;;;;;4981656;28;20462;-52
2022/03/26 11:32:46;;;;;;;32.53;24.53;;;24.60;39.60;;;;;;4983104;28;20517;-54
2022/03/26 11:35:15;;;;;;;33.67;26.23;;;24.70;39.10;;;;;;4984495;28;21104;-52
2022/03/26 11:37:53;;;;;;;34.77;26.00;;;24.70;39.80;;;;;;4983063;28;20479;-54
2022/03/26 11:40:44;;;;;;;34.70;25.50;;;23.70;38.80;;;;;;4984390;28;20447;-54
2022/03/26 11:43:11;;;;;;;29.70;23.30;;;23.50;38.20;;;;;;4985644;28;20525;-55
2022/03/26 11:51:22;;;;;;;29.83;23.40;;;23.40;36.90;;;;;;4983459;28;20457;-54
2022/03/26 11:53:53;;;;;;;27.70;20.93;;;24.00;38.30;;;;;;4983623;28;20478;-54
2022/03/26 11:56:27;;;;;;;25.30;20.00;;;24.60;37.80;;;;;;4981808;28;20463;-53
2022/03/26 11:59:27;;;;;;;25.77;20.47;;;23.80;35.90;;;;;;4983293;28;20467;-53
2022/03/26 12:01:54;;;;;;;28.00;19.40;;;23.10;36.50;;;;;;4984466;28;20466;-54
2022/03/26 12:04:26;;;;;;;28.30;20.00;;;23.80;37.10;;;;;;4984208;28;20580;-53
2022/03/26 12:06:57;;;;;;;26.43;19.90;;;24.70;36.80;;;;;;4983241;28;20485;-56
2022/03/26 12:09:32;;;;;;;24.60;19.30;;;24.70;36.00;;;;;;4985745;28;20483;-55
2022/03/26 12:12:20;;;;;;;27.43;20.13;;;24.60;35.40;;;;;;4984548;28;20569;-55
2022/03/26 12:15:26;;;;;;;26.20;20.40;;;23.40;36.00;;;;;;4983733;28;20861;-56
2022/03/26 12:17:54;;;;;;;25.33;20.10;;;23.30;36.00;;;;;;4984211;28;20544;-54
2022/03/26 12:20:26;;;;;;;28.17;18.03;;;23.90;36.20;;;;;;4983144;28;20462;-53
2022/03/26 12:23:04;;;;;;;22.00;18.30;;;24.60;36.10;;;;;;4978943;28;21026;-52
2022/03/26 12:25:50;;;;;;;23.13;17.30;;;25.30;36.70;;;;;;4973959;28;20597;-55
2022/03/26 12:28:32;;;;;;;23.03;17.40;;;24.60;35.20;;;;;;4974693;28;20491;-51
2022/03/26 12:31:04;;;;;;;22.23;17.73;;;23.90;34.70;;;;;;4974935;28;20443;-48
2022/03/26 12:33:43;;;;;;;22.40;16.47;;;23.60;35.00;;;;;;4976833;28;20455;-50
2022/03/26 12:36:11;;;;;;;27.13;18.60;;;23.30;35.60;;;;;;4975343;28;20447;-48
2022/03/26 12:38:39;;;;;;;22.43;18.63;;;23.50;34.70;;;;;;4974684;28;20561;-50
2022/03/26 12:41:08;;;;;;;25.03;19.63;;;23.70;34.70;;;;;;4973770;28;20447;-50
2022/03/26 12:43:37;;;;;;;27.43;18.40;;;22.90;36.80;;;;;;4973088;28;20740;-50
2022/03/26 12:46:09;;;;;;;27.63;17.80;;;23.50;37.30;;;;;;4973659;28;20994;-50
2022/03/26 12:48:37;;;;;;;28.57;19.93;;;23.00;36.70;;;;;;4971779;28;20912;-49